California Highway — 3FJL6 — position and weather

sailwx.info

Track history (hours):
 
Tides and Currents Weather Stations Pressure Air Temp Water Temp Dewpoint Dewpoint Depression Visibility Wind Speed Wind Dir Waves Ship Positions

California Highway

Last reported at 2018-Jul-14 19:39 UTC. Time now 2018-Jul-16 06:39 UTC.
Position N 02°01' E 104°38'.

Length 200 m; draft 8.2 m.

Type: Cargo ship. MMSI: 352732000.

Date/timePositionNaut miles runAvg speedWind from/ knotsBaromVisibWave heightAir tempDewpointWater temp
2018-Jul-14 19:39N 02°01' E 104°38'620.0
2018-Jul-14 19:22N 01°56' E 104°37'718.3
2018-Jul-14 18:59N 01°49' E 104°36'1018.9
2018-Jul-14 18:26N 01°39' E 104°35'918.5
2018-Jul-14 17:59N 01°30' E 104°33'1018.0
2018-Jul-14 17:27N 01°23' E 104°27'918.5
2018-Jul-14 16:59N 01°18' E 104°20'817.2
2018-Jul-14 16:30N 01°17' E 104°12'916.6
2018-Jul-14 16:00N 01°15' E 104°04'816.3
2018-Jul-14 15:31N 01°13' E 103°56'713.1
2018-Jul-14 15:00N 01°11' E 103°50'7 7.2
2018-Jul-14 14:00N 01°17' E 103°45'0 0.1
2018-Jul-14 13:26N 01°17' E 103°45'0 0.1
2018-Jul-14 12:59N 01°17' E 103°45'0 0.1
2018-Jul-14 12:26N 01°17' E 103°45'0 0.1
2018-Jul-14 11:59N 01°17' E 103°45'0 0.0
2018-Jul-14 11:29N 01°17' E 103°45'0 0.0
2018-Jul-14 10:59N 01°17' E 103°45'0 0.1
2018-Jul-14 10:29N 01°17' E 103°45'0 0.1
2018-Jul-14 09:59N 01°17' E 103°45'0 0.0
2018-Jul-14 09:25N 01°17' E 103°45'0 0.0
2018-Jul-14 08:56N 01°17' E 103°45'0 0.1
2018-Jul-14 08:29N 01°17' E 103°45'0 0.0
2018-Jul-14 07:58N 01°17' E 103°45'0 0.0
2018-Jul-14 07:23N 01°17' E 103°45'0 0.1
2018-Jul-14 06:59N 01°17' E 103°45'0 0.0
2018-Jul-14 06:29N 01°17' E 103°45'0 0.0
2018-Jul-14 05:59N 01°17' E 103°45'0 0.5
2018-Jul-14 05:30N 01°17' E 103°45'0 0.8
2018-Jul-14 05:00N 01°17' E 103°45'4 7.4
2018-Jul-14 04:30N 01°14' E 103°47'510.5
2018-Jul-14 04:00N 01°13' E 103°52'4 7.4
2018-Jul-14 03:30N 01°14' E 103°56'5 9.8
2018-Jul-14 03:00N 01°16' E 104°00'510.1
2018-Jul-14 02:31N 01°16' E 104°05'611.0
2018-Jul-14 01:57N 01°17' E 104°11'612.5
2018-Jul-14 01:29N 01°18' E 104°17'715.3
2018-Jul-14 01:00N 01°22' E 104°23'815.9
2018-Jul-14 00:29N 01°27' E 104°29'1015.7
2018-Jul-13 23:50N 01°35' E 104°37'816.1
2018-Jul-13 23:20N 01°38' E 104°44'510.2
2018-Jul-13 22:50N 01°34' E 104°41'2817.4
2018-Jul-13 21:12N 01°20' E 105°06'  
2018-Jul-08 10:12S 31°56' E 115°38'414.4
2018-Jul-08 09:55S 31°59' E 115°42'3 8.4
2018-Jul-08 09:30S 32°02' E 115°42'3 5.1
2018-Jul-08 09:00S 32°03' E 115°45'0 0.0
2018-Jul-08 06:12S 32°03' E 115°45'0 0.0
2018-Jul-08 05:42S 32°03' E 115°45'0 0.0
2018-Jul-08 05:30S 32°03' E 115°45'0 0.0
2018-Jul-07 13:42S 32°03' E 115°45'0 2.0
2018-Jul-07 13:30S 32°03' E 115°45'3 6.2
2018-Jul-07 12:59S 32°01' E 115°42'4 8.9
2018-Jul-07 12:30S 31°57' E 115°39'  
Track history (hours):
 
Tides and Currents Weather Stations Pressure Air Temp Water Temp Dewpoint Dewpoint Depression Visibility Wind Speed Wind Dir Waves Ship Positions

California Highway

Last reported at 2018-Jul-14 19:39 UTC. Time now 2018-Jul-16 06:39 UTC.
Position N 02°01' E 104°38'.

Length 200 m; draft 8.2 m.

Type: Cargo ship. MMSI: 352732000.

Date/timePositionNaut miles runAvg speedWind from/ knotsBaromVisibWave heightAir tempDewpointWater temp
2018-Jul-14 19:39N 02°01' E 104°38'620.0
2018-Jul-14 19:22N 01°56' E 104°37'718.3
2018-Jul-14 18:59N 01°49' E 104°36'1018.9
2018-Jul-14 18:26N 01°39' E 104°35'918.5
2018-Jul-14 17:59N 01°30' E 104°33'1018.0
2018-Jul-14 17:27N 01°23' E 104°27'918.5
2018-Jul-14 16:59N 01°18' E 104°20'817.2
2018-Jul-14 16:30N 01°17' E 104°12'916.6
2018-Jul-14 16:00N 01°15' E 104°04'816.3
2018-Jul-14 15:31N 01°13' E 103°56'713.1
2018-Jul-14 15:00N 01°11' E 103°50'7 7.2
2018-Jul-14 14:00N 01°17' E 103°45'0 0.1
2018-Jul-14 13:26N 01°17' E 103°45'0 0.1
2018-Jul-14 12:59N 01°17' E 103°45'0 0.1
2018-Jul-14 12:26N 01°17' E 103°45'0 0.1
2018-Jul-14 11:59N 01°17' E 103°45'0 0.0
2018-Jul-14 11:29N 01°17' E 103°45'0 0.0
2018-Jul-14 10:59N 01°17' E 103°45'0 0.1
2018-Jul-14 10:29N 01°17' E 103°45'0 0.1
2018-Jul-14 09:59N 01°17' E 103°45'0 0.0
2018-Jul-14 09:25N 01°17' E 103°45'0 0.0
2018-Jul-14 08:56N 01°17' E 103°45'0 0.1
2018-Jul-14 08:29N 01°17' E 103°45'0 0.0
2018-Jul-14 07:58N 01°17' E 103°45'0 0.0
2018-Jul-14 07:23N 01°17' E 103°45'0 0.1
2018-Jul-14 06:59N 01°17' E 103°45'0 0.0
2018-Jul-14 06:29N 01°17' E 103°45'0 0.0
2018-Jul-14 05:59N 01°17' E 103°45'0 0.5
2018-Jul-14 05:30N 01°17' E 103°45'0 0.8
2018-Jul-14 05:00N 01°17' E 103°45'4 7.4
2018-Jul-14 04:30N 01°14' E 103°47'510.5
2018-Jul-14 04:00N 01°13' E 103°52'4 7.4
2018-Jul-14 03:30N 01°14' E 103°56'5 9.8
2018-Jul-14 03:00N 01°16' E 104°00'510.1
2018-Jul-14 02:31N 01°16' E 104°05'611.0
2018-Jul-14 01:57N 01°17' E 104°11'612.5
2018-Jul-14 01:29N 01°18' E 104°17'715.3
2018-Jul-14 01:00N 01°22' E 104°23'815.9
2018-Jul-14 00:29N 01°27' E 104°29'1015.7
2018-Jul-13 23:50N 01°35' E 104°37'816.1
2018-Jul-13 23:20N 01°38' E 104°44'510.2
2018-Jul-13 22:50N 01°34' E 104°41'2817.4
2018-Jul-13 21:12N 01°20' E 105°06'  
2018-Jul-08 10:12S 31°56' E 115°38'414.4
2018-Jul-08 09:55S 31°59' E 115°42'3 8.4
2018-Jul-08 09:30S 32°02' E 115°42'3 5.1
2018-Jul-08 09:00S 32°03' E 115°45'0 0.0
2018-Jul-08 06:12S 32°03' E 115°45'0 0.0
2018-Jul-08 05:42S 32°03' E 115°45'0 0.0
2018-Jul-08 05:30S 32°03' E 115°45'0 0.0
2018-Jul-07 13:42S 32°03' E 115°45'0 2.0
2018-Jul-07 13:30S 32°03' E 115°45'3 6.2
2018-Jul-07 12:59S 32°01' E 115°42'4 8.9
2018-Jul-07 12:30S 31°57' E 115°39'  

Dump ship's entire track history